createdAt,value
2022-11-05T00:00:36.409Z,13.61
2022-11-05T00:03:22.062Z,13.95
2022-11-05T00:06:11.303Z,13.84
2022-11-05T00:08:56.902Z,13.66
2022-11-05T00:11:43.699Z,13.45
2022-11-05T00:14:29.164Z,13.49
2022-11-05T00:16:55.768Z,13.47
2022-11-05T00:19:22.513Z,13.72
2022-11-05T00:22:09.515Z,13.63
2022-11-05T00:24:55.791Z,13.95
2022-11-05T00:27:23.225Z,13.56
2022-11-05T00:29:49.964Z,13.64
2022-11-05T00:32:16.517Z,13.57
2022-11-05T00:34:43.076Z,13.27
2022-11-05T00:37:09.802Z,13.33
2022-11-05T00:39:36.436Z,13.18
2022-11-05T00:42:26.337Z,13.26
2022-11-05T00:45:01.506Z,13.25
2022-11-05T00:47:51.172Z,14.06
2022-11-05T00:50:21.361Z,13.81
2022-11-05T00:52:55.557Z,13.52
2022-11-05T00:55:28.733Z,13.37
2022-11-05T00:58:00.700Z,13.17
2022-11-05T01:00:29.982Z,13.06
2022-11-05T01:03:01.766Z,13.23
2022-11-05T01:05:34.029Z,12.93
2022-11-05T01:08:04.677Z,13.25
2022-11-05T01:10:31.579Z,13.12
2022-11-05T01:12:59.055Z,13.00
2022-11-05T01:15:25.641Z,13.37
2022-11-05T01:17:52.501Z,13.29
2022-11-05T01:20:19.147Z,13.27
2022-11-05T01:22:45.635Z,13.31
2022-11-05T01:25:12.310Z,13.08
2022-11-05T01:27:39.167Z,13.21
2022-11-05T01:30:07.980Z,13.13
2022-11-05T01:32:36.247Z,13.20
2022-11-05T01:35:07.187Z,13.19
2022-11-05T01:37:35.079Z,13.44
2022-11-05T01:40:02.169Z,13.10
2022-11-05T01:42:32.417Z,13.23
2022-11-05T01:45:04.000Z,13.47
2022-11-05T01:47:49.063Z,13.11
2022-11-05T01:50:27.321Z,13.48
2022-11-05T01:53:00.802Z,13.30
2022-11-05T01:55:31.498Z,13.67
2022-11-05T01:58:00.421Z,13.30
2022-11-05T02:00:28.138Z,13.42
2022-11-05T02:02:54.884Z,13.32
2022-11-05T02:05:22.250Z,13.36
2022-11-05T02:07:49.676Z,13.05
2022-11-05T02:10:18.128Z,13.62
2022-11-05T02:12:48.549Z,13.39
2022-11-05T02:15:35.742Z,13.25
2022-11-05T02:18:04.944Z,13.39
2022-11-05T02:20:54.408Z,13.47
2022-11-05T02:23:58.527Z,13.58
2022-11-05T02:26:37.301Z,13.36
2022-11-05T02:29:29.388Z,13.33
2022-11-05T02:32:04.989Z,13.34
2022-11-05T02:34:37.493Z,13.58
2022-11-05T02:37:15.622Z,13.84
2022-11-05T02:40:11.501Z,13.27
2022-11-05T02:42:56.763Z,13.36
2022-11-05T02:45:41.812Z,13.54
2022-11-05T02:48:24.462Z,13.12
2022-11-05T02:51:25.243Z,13.32
2022-11-05T02:54:01.925Z,13.41
2022-11-05T02:56:39.329Z,13.35
2022-11-05T02:59:05.825Z,13.43
2022-11-05T03:01:32.514Z,13.83
2022-11-05T03:04:04.835Z,14.28
2022-11-05T03:06:52.707Z,13.56
2022-11-05T03:09:38.018Z,13.42
2022-11-05T03:12:16.836Z,13.14
2022-11-05T03:15:01.911Z,13.11
2022-11-05T03:17:36.878Z,13.55
2022-11-05T03:20:24.113Z,13.34
2022-11-05T03:23:26.379Z,13.39
2022-11-05T03:26:05.525Z,13.90
2022-11-05T03:28:35.613Z,13.54
2022-11-05T03:31:04.628Z,13.25
2022-11-05T03:33:38.545Z,13.14
2022-11-05T03:36:16.248Z,12.90
2022-11-05T03:38:46.892Z,13.81
2022-11-05T03:41:17.429Z,13.36
2022-11-05T03:43:50.862Z,13.10
2022-11-05T03:46:24.627Z,13.40
2022-11-05T03:48:55.835Z,13.49
2022-11-05T03:51:32.056Z,13.25
2022-11-05T03:54:01.155Z,13.09
2022-11-05T03:56:38.692Z,13.24
2022-11-05T03:59:07.674Z,13.00
2022-11-05T04:01:36.996Z,13.20
2022-11-05T04:04:07.897Z,13.61
2022-11-05T04:06:53.840Z,13.54
2022-11-05T04:09:41.150Z,13.46
2022-11-05T04:12:29.199Z,14.19
2022-11-05T04:14:56.284Z,13.90
2022-11-05T04:17:22.839Z,13.20
2022-11-05T04:20:10.925Z,13.47
2022-11-05T04:23:01.836Z,13.90
2022-11-05T04:25:37.703Z,13.76
2022-11-05T04:28:06.386Z,14.01
2022-11-05T04:30:41.657Z,13.98
2022-11-05T04:33:12.322Z,13.30
2022-11-05T04:35:42.981Z,13.40
2022-11-05T04:38:13.329Z,13.40
2022-11-05T04:40:40.664Z,13.24
2022-11-05T04:43:15.056Z,13.28
2022-11-05T04:45:44.818Z,13.76
2022-11-05T04:48:13.444Z,13.47
2022-11-05T04:50:40.118Z,13.57
2022-11-05T04:53:06.913Z,13.91
2022-11-05T04:55:35.434Z,13.66
2022-11-05T04:58:02.044Z,13.60
2022-11-05T05:00:28.794Z,13.60
2022-11-05T05:02:55.410Z,13.50
2022-11-05T05:05:23.197Z,13.43
2022-11-05T05:07:49.989Z,13.23
2022-11-05T05:10:16.852Z,13.30
2022-11-05T05:12:43.566Z,13.22
2022-11-05T05:15:10.526Z,13.08
2022-11-05T05:17:37.154Z,13.43
2022-11-05T05:20:22.620Z,13.42
2022-11-05T05:22:55.694Z,13.65
2022-11-05T05:25:22.728Z,13.25
2022-11-05T05:27:49.372Z,13.33
2022-11-05T05:30:16.154Z,13.14
2022-11-05T05:32:44.831Z,13.23
2022-11-05T05:35:16.013Z,13.84
2022-11-05T05:37:43.007Z,13.42
2022-11-05T05:40:10.303Z,13.46
2022-11-05T05:42:42.684Z,13.35
2022-11-05T05:45:12.132Z,13.42
2022-11-05T05:47:38.872Z,13.51
2022-11-05T05:50:05.870Z,13.75
2022-11-05T05:52:34.517Z,13.48
2022-11-05T05:55:03.914Z,13.61
2022-11-05T05:57:31.882Z,13.79
2022-11-05T06:00:01.983Z,13.49
2022-11-05T06:02:32.720Z,13.94
2022-11-05T06:04:59.703Z,13.88
2022-11-05T06:07:26.350Z,13.79
2022-11-05T06:09:52.956Z,13.54
2022-11-05T06:12:19.438Z,13.64
2022-11-05T06:14:45.946Z,13.62
2022-11-05T06:17:15.771Z,13.45
2022-11-05T06:19:44.443Z,13.59
2022-11-05T06:22:11.243Z,13.20
2022-11-05T06:24:38.153Z,12.93
2022-11-05T06:27:05.053Z,13.85
2022-11-05T06:29:31.609Z,13.96
2022-11-05T06:31:58.058Z,13.74
2022-11-05T06:34:24.629Z,13.70
2022-11-05T06:36:51.202Z,14.06
2022-11-05T06:39:17.689Z,13.66
2022-11-05T06:42:12.027Z,13.80
2022-11-05T06:44:31.227Z,13.79
2022-11-05T06:46:59.814Z,14.12
2022-11-05T06:49:26.606Z,14.51
2022-11-05T06:51:55.907Z,14.67
2022-11-05T06:54:22.384Z,14.32
2022-11-05T06:56:48.834Z,14.17
2022-11-05T06:59:15.634Z,13.76
2022-11-05T07:01:42.407Z,14.39
2022-11-05T07:04:08.966Z,14.59
2022-11-05T07:06:37.095Z,14.79
2022-11-05T07:09:04.465Z,14.66
2022-11-05T07:11:42.809Z,13.92
2022-11-05T07:14:09.316Z,13.93
2022-11-05T07:16:35.905Z,14.26
2022-11-05T07:19:02.731Z,14.75
2022-11-05T07:21:29.481Z,15.19
2022-11-05T07:23:55.962Z,14.55
2022-11-05T07:26:22.440Z,14.61
2022-11-05T07:28:48.981Z,15.04
2022-11-05T07:31:15.614Z,15.02
2022-11-05T07:33:42.173Z,15.23
2022-11-05T07:36:09.074Z,14.66
2022-11-05T07:38:35.613Z,15.23
2022-11-05T07:41:02.152Z,15.60
2022-11-05T07:43:28.712Z,14.85
2022-11-05T07:45:55.229Z,14.93
2022-11-05T07:48:21.770Z,14.89
2022-11-05T07:50:56.954Z,15.54
2022-11-05T07:53:23.492Z,15.69
2022-11-05T07:55:52.578Z,15.46
2022-11-05T07:58:25.154Z,15.33
2022-11-05T08:00:51.807Z,15.15
2022-11-05T08:03:19.432Z,15.39
2022-11-05T08:05:48.093Z,15.11
2022-11-05T08:08:17.248Z,15.53
2022-11-05T08:10:44.185Z,15.10
2022-11-05T08:13:12.070Z,15.90
2022-11-05T08:15:39.342Z,15.33
2022-11-05T08:18:09.085Z,14.92
2022-11-05T08:20:36.958Z,15.42
2022-11-05T08:23:03.570Z,15.33
2022-11-05T08:25:35.254Z,15.42
2022-11-05T08:28:04.612Z,15.30
2022-11-05T08:30:32.321Z,15.59
2022-11-05T08:33:04.296Z,15.39
2022-11-05T08:35:30.960Z,15.59
2022-11-05T08:38:02.781Z,15.50
2022-11-05T08:40:31.555Z,15.52
2022-11-05T08:43:04.537Z,15.44
2022-11-05T08:45:32.052Z,15.65
2022-11-05T08:47:59.917Z,15.54
2022-11-05T08:50:29.438Z,15.49
2022-11-05T08:52:59.913Z,15.74
2022-11-05T08:55:29.205Z,15.77
2022-11-05T08:58:04.856Z,15.80
2022-11-05T09:00:34.417Z,15.48
2022-11-05T09:03:02.743Z,15.67
2022-11-05T09:05:31.227Z,15.34
2022-11-05T09:08:01.338Z,15.59
2022-11-05T09:10:29.081Z,15.85
2022-11-05T09:12:56.205Z,15.56
2022-11-05T09:15:23.531Z,15.51
2022-11-05T09:17:53.309Z,15.53
2022-11-05T09:20:19.851Z,16.03
2022-11-05T09:22:49.944Z,15.74
2022-11-05T09:25:16.703Z,15.77
2022-11-05T09:27:44.030Z,15.82
2022-11-05T09:30:14.903Z,15.81
2022-11-05T09:32:42.187Z,15.91
2022-11-05T09:35:10.033Z,15.92
2022-11-05T09:37:40.046Z,15.88
2022-11-05T09:40:07.248Z,16.01
2022-11-05T09:42:50.281Z,15.89
2022-11-05T09:45:22.579Z,16.06
2022-11-05T09:48:01.381Z,15.94
2022-11-05T09:50:35.994Z,15.97
2022-11-05T09:53:04.575Z,16.10
2022-11-05T09:55:41.407Z,16.28
2022-11-05T09:58:22.122Z,16.19
2022-11-05T10:00:57.237Z,16.28
2022-11-05T10:03:28.125Z,16.38
2022-11-05T10:06:05.961Z,16.62
2022-11-05T10:08:38.593Z,16.59
2022-11-05T10:11:16.556Z,16.26
2022-11-05T10:13:51.484Z,16.08
2022-11-05T10:16:28.735Z,16.26
2022-11-05T10:19:07.450Z,16.42
2022-11-05T10:22:05.641Z,16.29
2022-11-05T10:24:29.745Z,16.51
2022-11-05T10:26:57.487Z,16.44
2022-11-05T10:29:30.340Z,16.71
2022-11-05T10:31:59.109Z,16.60
2022-11-05T10:34:34.904Z,16.81
2022-11-05T10:37:01.958Z,16.63
2022-11-05T10:39:36.349Z,16.51
2022-11-05T10:42:24.342Z,16.69
2022-11-05T10:45:06.921Z,16.62
2022-11-05T10:47:52.396Z,16.64
2022-11-05T10:50:23.706Z,16.60
2022-11-05T10:52:55.984Z,16.63
2022-11-05T10:55:28.422Z,16.67
2022-11-05T10:58:01.322Z,16.98
2022-11-05T11:00:28.549Z,16.51
2022-11-05T11:03:01.255Z,16.50
2022-11-05T11:05:34.002Z,16.67
2022-11-05T11:08:12.388Z,16.84
2022-11-05T11:10:50.420Z,16.59
2022-11-05T11:13:26.177Z,16.41
2022-11-05T11:15:53.590Z,16.48
2022-11-05T11:18:41.745Z,16.63
2022-11-05T11:21:27.215Z,16.69
2022-11-05T11:23:54.831Z,16.74
2022-11-05T11:26:24.739Z,16.84
2022-11-05T11:29:26.348Z,16.64
2022-11-05T11:32:01.044Z,16.52
2022-11-05T11:34:35.042Z,16.48
2022-11-05T11:37:12.904Z,16.67
2022-11-05T11:39:54.686Z,16.71
2022-11-05T11:42:33.928Z,16.95
2022-11-05T11:45:09.169Z,16.80
2022-11-05T11:47:35.838Z,16.94
2022-11-05T11:50:03.131Z,16.85
2022-11-05T11:52:35.698Z,16.74
2022-11-05T11:55:22.695Z,16.61
2022-11-05T11:57:52.331Z,17.08
2022-11-05T12:00:20.807Z,16.79
2022-11-05T12:03:18.979Z,16.90
2022-11-05T12:06:01.736Z,16.69
2022-11-05T12:09:06.225Z,16.91
2022-11-05T12:11:52.483Z,17.00
2022-11-05T12:14:46.190Z,16.99
2022-11-05T12:17:21.972Z,16.96
2022-11-05T12:19:51.318Z,17.30
2022-11-05T12:22:17.836Z,17.06
2022-11-05T12:25:02.499Z,17.05
2022-11-05T12:27:37.839Z,17.06
2022-11-05T12:30:20.092Z,16.95
2022-11-05T12:33:08.882Z,16.99
2022-11-05T12:35:58.271Z,17.03
2022-11-05T12:38:43.598Z,17.02
2022-11-05T12:41:52.850Z,16.89
2022-11-05T12:45:02.426Z,16.90
2022-11-05T12:47:31.911Z,16.94
2022-11-05T12:50:16.799Z,16.93
2022-11-05T12:53:31.074Z,16.98
2022-11-05T12:56:02.541Z,16.98
2022-11-05T12:58:35.762Z,16.93
2022-11-05T13:01:15.964Z,16.88
2022-11-05T13:03:47.032Z,16.92
2022-11-05T13:06:17.329Z,17.08
2022-11-05T13:08:47.995Z,16.97
2022-11-05T13:11:20.552Z,16.91
2022-11-05T13:14:18.366Z,16.95
2022-11-05T13:16:50.722Z,16.95
2022-11-05T13:19:33.213Z,17.19
2022-11-05T13:22:14.655Z,17.17
2022-11-05T13:24:50.330Z,16.93
2022-11-05T13:27:25.728Z,17.04
2022-11-05T13:30:07.193Z,16.92
2022-11-05T13:32:41.334Z,16.98
2022-11-05T13:35:17.204Z,16.98
2022-11-05T13:38:06.021Z,16.97
2022-11-05T13:40:49.171Z,16.98
2022-11-05T13:43:40.991Z,17.11
2022-11-05T13:46:51.288Z,16.96
2022-11-05T13:49:41.734Z,16.88
2022-11-05T13:52:31.885Z,16.96
2022-11-05T13:55:15.358Z,17.10
2022-11-05T13:57:57.812Z,16.99
2022-11-05T14:00:29.242Z,16.90
2022-11-05T14:03:14.197Z,17.06
2022-11-05T14:05:43.049Z,17.08
2022-11-05T14:08:12.829Z,17.02
2022-11-05T14:10:47.589Z,17.13
2022-11-05T14:13:31.943Z,17.14
2022-11-05T14:16:09.125Z,17.13
2022-11-05T14:18:44.610Z,17.06
2022-11-05T14:21:32.872Z,17.03
2022-11-05T14:24:27.903Z,16.97
2022-11-05T14:27:03.472Z,16.83
2022-11-05T14:29:56.505Z,16.82
2022-11-05T14:32:44.130Z,16.87
2022-11-05T14:35:16.981Z,16.79
2022-11-05T14:38:27.073Z,16.90
2022-11-05T14:41:04.011Z,16.86
2022-11-05T14:43:34.047Z,16.88
2022-11-05T14:46:10.657Z,16.78
2022-11-05T14:48:37.652Z,16.91
2022-11-05T14:51:38.132Z,16.85
2022-11-05T14:54:07.090Z,16.80
2022-11-05T14:56:56.354Z,16.77
2022-11-05T14:59:29.235Z,16.70
2022-11-05T15:02:03.853Z,16.65
2022-11-05T15:04:37.111Z,16.75
2022-11-05T15:07:03.766Z,16.59
2022-11-05T15:09:59.746Z,16.68
2022-11-05T15:12:46.699Z,16.58
2022-11-05T15:15:21.422Z,16.53
2022-11-05T15:17:51.321Z,16.28
2022-11-05T15:20:22.182Z,16.42
2022-11-05T15:22:55.174Z,16.29
2022-11-05T15:25:31.149Z,16.25
2022-11-05T15:28:10.138Z,16.30
2022-11-05T15:30:37.130Z,16.24
2022-11-05T15:33:21.291Z,16.24
2022-11-05T15:35:47.963Z,16.36
2022-11-05T15:38:26.417Z,16.37
2022-11-05T15:41:24.314Z,16.31
2022-11-05T15:43:51.609Z,16.28
2022-11-05T15:46:30.243Z,16.26
2022-11-05T15:49:06.605Z,16.30
2022-11-05T15:51:33.750Z,16.13
2022-11-05T15:56:58.146Z,15.78
2022-11-05T15:59:27.199Z,15.68
2022-11-05T16:02:02.130Z,15.70
2022-11-05T16:04:35.224Z,15.48
2022-11-05T16:07:13.493Z,15.29
2022-11-05T16:09:43.915Z,15.26
2022-11-05T16:12:24.203Z,15.20
2022-11-05T16:15:00.137Z,15.09
2022-11-05T16:17:31.421Z,15.02
2022-11-05T16:19:58.157Z,15.02
2022-11-05T16:22:44.129Z,14.82
2022-11-05T16:25:31.264Z,14.74
2022-11-05T16:27:59.910Z,14.70
2022-11-05T16:30:26.822Z,14.61
2022-11-05T16:32:54.105Z,14.58
2022-11-05T16:35:23.414Z,14.54
2022-11-05T16:37:52.396Z,14.55
2022-11-05T16:40:25.527Z,14.53
2022-11-05T16:42:57.660Z,14.51
2022-11-05T16:45:25.436Z,14.45
2022-11-05T16:47:55.101Z,14.36
2022-11-05T16:50:32.646Z,14.39
2022-11-05T16:52:59.269Z,14.29
2022-11-05T16:55:26.741Z,14.20
2022-11-05T16:57:55.755Z,14.21
2022-11-05T17:00:29.884Z,14.10
2022-11-05T17:02:56.597Z,14.08
2022-11-05T17:05:29.400Z,13.99
2022-11-05T17:07:56.734Z,13.92
2022-11-05T17:10:26.135Z,13.92
2022-11-05T17:12:53.889Z,13.86
2022-11-05T17:15:26.867Z,13.74
2022-11-05T17:17:56.079Z,13.64
2022-11-05T17:20:28.984Z,13.60
2022-11-05T17:22:57.725Z,13.61
2022-11-05T17:25:25.929Z,13.59
2022-11-05T17:27:54.449Z,13.54
2022-11-05T17:30:22.043Z,13.53
2022-11-05T17:32:49.728Z,13.54
2022-11-05T17:35:16.562Z,13.50
2022-11-05T17:37:43.088Z,13.47
2022-11-05T17:40:14.249Z,13.35
2022-11-05T17:42:40.725Z,13.22
2022-11-05T17:45:07.893Z,13.17
2022-11-05T17:47:34.651Z,13.08
2022-11-05T17:50:01.116Z,13.04
2022-11-05T17:52:28.881Z,13.15
2022-11-05T17:54:55.515Z,13.20
2022-11-05T17:57:25.112Z,13.20
2022-11-05T17:59:51.764Z,13.11
2022-11-05T18:02:18.507Z,13.16
2022-11-05T18:04:45.644Z,13.15
2022-11-05T18:07:16.562Z,13.10
2022-11-05T18:09:43.509Z,12.99
2022-11-05T18:12:12.398Z,12.95
2022-11-05T18:14:39.115Z,13.06
2022-11-05T18:17:05.626Z,13.00
2022-11-05T18:19:32.394Z,12.91
2022-11-05T18:25:44.115Z,12.77
2022-11-05T18:28:14.431Z,12.79
2022-11-05T18:30:42.042Z,12.87
2022-11-05T18:33:09.477Z,13.38
2022-11-05T18:35:45.556Z,13.48
2022-11-05T18:38:14.320Z,13.53
2022-11-05T18:40:42.474Z,13.67
2022-11-05T18:43:11.775Z,13.63
2022-11-05T18:45:38.934Z,13.75
2022-11-05T18:48:06.616Z,13.53
2022-11-05T18:50:33.430Z,13.48
2022-11-05T18:53:00.313Z,13.34
2022-11-05T18:55:27.133Z,13.35
2022-11-05T18:57:57.865Z,13.33
2022-11-05T19:00:34.494Z,13.27
2022-11-05T19:03:03.849Z,13.19
2022-11-05T19:05:30.667Z,13.15
2022-11-05T19:07:57.954Z,13.17
2022-11-05T19:10:25.129Z,13.16
2022-11-05T19:12:52.258Z,12.91
2022-11-05T19:15:21.392Z,12.82
2022-11-05T19:17:48.111Z,12.74
2022-11-05T19:20:15.147Z,12.76
2022-11-05T19:22:44.930Z,12.64
2022-11-05T19:25:14.562Z,12.86
2022-11-05T19:27:42.617Z,12.63
2022-11-05T19:30:09.755Z,12.61
2022-11-05T19:32:36.276Z,12.63
2022-11-05T19:35:02.860Z,12.71
2022-11-05T19:37:29.390Z,12.59
2022-11-05T19:39:55.885Z,12.60
2022-11-05T19:42:22.426Z,12.72
2022-11-05T19:44:51.122Z,13.23
2022-11-05T19:47:17.873Z,12.89
2022-11-05T19:49:45.970Z,12.69
2022-11-05T19:52:16.561Z,12.61
2022-11-05T19:54:46.284Z,12.69
2022-11-05T19:57:13.382Z,12.80
2022-11-05T19:59:42.686Z,12.68
2022-11-05T20:02:16.262Z,12.73
2022-11-05T20:04:43.285Z,12.68
2022-11-05T20:07:12.828Z,12.64
2022-11-05T20:09:39.435Z,12.65
2022-11-05T20:12:06.253Z,12.58
2022-11-05T20:14:35.871Z,12.52
2022-11-05T20:17:02.414Z,12.66
2022-11-05T20:19:29.016Z,12.63
2022-11-05T20:22:02.038Z,12.55
2022-11-05T20:24:28.921Z,12.53
2022-11-05T20:26:59.117Z,12.53
2022-11-05T20:29:32.139Z,12.32
2022-11-05T20:32:02.431Z,12.38
2022-11-05T20:34:36.345Z,12.29
2022-11-05T20:37:03.261Z,12.31
2022-11-05T20:39:30.399Z,12.12
2022-11-05T20:42:02.734Z,12.19
2022-11-05T20:44:29.351Z,12.19
2022-11-05T20:46:56.646Z,12.22
2022-11-05T20:49:25.622Z,12.23
2022-11-05T20:51:52.848Z,12.26
2022-11-05T20:54:21.059Z,12.10
2022-11-05T20:56:48.252Z,12.16
2022-11-05T20:59:15.028Z,12.19
2022-11-05T21:01:41.954Z,12.10
2022-11-05T21:04:08.841Z,11.99
2022-11-05T21:06:35.861Z,12.02
2022-11-05T21:09:03.696Z,11.99
2022-11-05T21:11:50.325Z,11.95
2022-11-05T21:14:20.194Z,12.05
2022-11-05T21:16:51.008Z,11.86
2022-11-05T21:19:24.739Z,11.63
2022-11-05T21:21:51.352Z,11.58
2022-11-05T21:24:19.384Z,11.27
2022-11-05T21:26:47.157Z,11.25
2022-11-05T21:29:15.335Z,11.25
2022-11-05T21:31:43.723Z,11.22
2022-11-05T21:34:10.860Z,11.36
2022-11-05T21:36:37.604Z,11.20
2022-11-05T21:39:10.463Z,11.08
2022-11-05T21:41:44.010Z,11.07
2022-11-05T21:44:10.571Z,11.04
2022-11-05T21:46:37.874Z,10.92
2022-11-05T21:49:04.605Z,10.95
2022-11-05T21:51:51.745Z,10.93
2022-11-05T21:54:36.585Z,10.91
2022-11-05T21:57:27.223Z,11.07
2022-11-05T21:59:58.805Z,11.28
2022-11-05T22:02:28.331Z,11.16
2022-11-05T22:04:57.413Z,11.07
2022-11-05T22:07:31.040Z,11.02
2022-11-05T22:09:58.034Z,11.03
2022-11-05T22:12:25.003Z,11.19
2022-11-05T22:14:52.287Z,11.11
2022-11-05T22:17:22.031Z,10.92
2022-11-05T22:19:48.610Z,10.82
2022-11-05T22:22:15.342Z,10.84
2022-11-05T22:24:44.991Z,10.84
2022-11-05T22:27:14.413Z,10.80
2022-11-05T22:29:41.081Z,10.98
2022-11-05T22:32:17.512Z,10.99
2022-11-05T22:34:46.264Z,11.00
2022-11-05T22:37:13.641Z,11.04
2022-11-05T22:39:43.585Z,10.99
2022-11-05T22:42:10.490Z,10.87
2022-11-05T22:44:39.466Z,10.72
2022-11-05T22:47:07.504Z,10.68
2022-11-05T22:49:34.544Z,10.75
2022-11-05T22:52:01.380Z,10.74
2022-11-05T22:54:28.645Z,10.93
2022-11-05T22:56:57.896Z,11.26
2022-11-05T22:59:24.696Z,11.33
2022-11-05T23:01:56.445Z,11.56
2022-11-05T23:04:26.236Z,11.78
2022-11-05T23:07:14.229Z,11.90
2022-11-05T23:10:01.985Z,11.78
2022-11-05T23:12:34.094Z,11.69
2022-11-05T23:15:01.866Z,11.64
2022-11-05T23:17:48.255Z,11.87
2022-11-05T23:20:37.115Z,11.70
2022-11-05T23:23:22.326Z,11.63
2022-11-05T23:25:49.106Z,11.67
2022-11-05T23:28:22.347Z,11.73
2022-11-05T23:31:07.436Z,11.54
2022-11-05T23:33:34.728Z,11.65
2022-11-05T23:36:20.441Z,11.73
2022-11-05T23:38:47.236Z,11.82
2022-11-05T23:41:32.458Z,11.64
2022-11-05T23:44:20.280Z,11.51
2022-11-05T23:47:05.250Z,11.41
2022-11-05T23:49:31.943Z,11.62
2022-11-05T23:52:00.600Z,11.57
2022-11-05T23:54:27.296Z,11.53
2022-11-05T23:56:53.802Z,11.45
2022-11-05T23:59:20.393Z,11.54
